Terminal Aerodrome Forecast
Issued by NWS

Current Version | Previous Version | Text Only | Print | Product List | Glossary On
Versions: 1 2 3 4 5 6 7 8 9 10 11 12 13 14
000
FTUS46 KSGX 070445 AAA
TAFSNA
TAF AMD
KSNA 070445Z 0705/0724 01011KT P6SM SKC
     FM070700 VRB05KT P6SM SKC WS020/04020KT
     FM071500 VRB03KT P6SM SKC
     FM072000 23010KT P6SM SKC=

USA.gov is the U.S. government's official web portal to all federal, state and local government web resources and services.